Dunlay, Texas
Current Conditions -  °F | °C
As of 7:51 PM on Sunday 21 Dec 2014 (Local Time) from KHDO Reporting Station
Overcast Overcast  
Wind Chill: 54°   Ceiling: 1600
Heat Index: 54°   Visibility: 10mi
Dew Point: 49°   Wind: 3mph
Humidity: 83%   Direction: 200°SSW
Pressure: 29.91"   Gusts: NA
Location:  29.4252°N, 99.1005°W
Report Text: KHDO 220151Z AUTO 20003KT 10SM OVC016 12/09 A2991 RMK AO2 SLP121 T01220094
Loading
Personal Weather Stations






























Interactive Weather Map New forecast layout! Learn more

10-Day Weather Forecast

Advertisements
Track Severe Weather on mobile